Time;durP1;ratioP1;P1;durP2;ratioP2;P2;SDS_P1;SDS_P2;PMS_P1;PMS_P2;Temp;Humidity;BMP_temperature;BMP_pressure;BME280_temperature;BME280_humidity;BME280_pressure;Samples;Min_cycle;Max_cycle;Signal;HPM_P1;HPM_P2
2022/12/02 00:01:13;;;;;;;117.80;56.20;;;7.00;90.40;;;;;;5045163;28;20033;-73
2022/12/02 00:03:40;;;;;;;108.15;49.97;;;7.00;90.10;;;;;;5045455;28;20025;-75
2022/12/02 00:06:17;;;;;;;90.55;43.28;;;7.00;90.20;;;;;;5047083;28;20029;-74
2022/12/02 00:08:44;;;;;;;111.35;51.33;;;7.10;91.00;;;;;;5039893;28;20110;-75
2022/12/02 00:11:27;;;;;;;115.82;51.45;;;7.10;90.90;;;;;;5044737;28;20041;-75
2022/12/02 00:13:55;;;;;;;113.18;54.47;;;7.20;91.70;;;;;;5041591;28;20029;-75
2022/12/02 00:16:23;;;;;;;107.18;50.75;;;7.10;90.40;;;;;;5044072;28;20025;-76
2022/12/02 00:18:50;;;;;;;104.50;50.85;;;7.10;90.60;;;;;;5022646;28;20021;-75
2022/12/02 00:21:16;;;;;;;106.35;49.20;;;7.10;90.00;;;;;;5045823;28;20052;-76
2022/12/02 00:23:42;;;;;;;104.85;52.50;;;7.10;89.20;;;;;;5026443;28;20740;-74
2022/12/02 00:26:08;;;;;;;99.75;48.72;;;7.00;88.80;;;;;;5045348;28;20136;-75
2022/12/02 00:28:34;;;;;;;86.10;44.50;;;7.10;88.60;;;;;;5041903;28;20025;-75
2022/12/02 00:31:00;;;;;;;82.50;43.83;;;7.10;88.70;;;;;;5044036;28;20025;-74
2022/12/02 00:33:28;;;;;;;92.65;47.28;;;7.00;87.80;;;;;;5042700;28;20056;-75
2022/12/02 00:35:54;;;;;;;86.25;45.22;;;7.00;87.60;;;;;;5042189;28;20054;-75
2022/12/02 00:38:20;;;;;;;86.30;43.35;;;7.00;87.40;;;;;;5042912;28;20108;-75
2022/12/02 00:40:45;;;;;;;84.30;41.00;;;7.00;86.90;;;;;;5044484;28;20033;-75
2022/12/02 00:48:39;;;;;;;87.35;42.67;;;7.00;86.90;;;;;;5043675;28;20090;-75
2022/12/02 00:51:05;;;;;;;82.85;43.35;;;7.00;86.60;;;;;;5039445;28;20286;-75
2022/12/02 00:53:31;;;;;;;88.70;45.90;;;6.90;86.60;;;;;;5043274;28;20021;-76
2022/12/02 00:55:57;;;;;;;84.15;44.08;;;7.00;86.80;;;;;;5041914;28;20020;-77
2022/12/02 00:58:22;;;;;;;82.80;45.63;;;6.90;87.90;;;;;;5053137;28;20386;-75
2022/12/02 01:00:48;;;;;;;85.35;43.40;;;7.00;87.20;;;;;;5025692;28;20108;-74
2022/12/02 01:03:14;;;;;;;84.95;44.95;;;7.00;87.10;;;;;;5042212;28;20090;-75
2022/12/02 01:05:40;;;;;;;98.55;44.97;;;7.00;86.70;;;;;;5041943;28;20033;-75
2022/12/02 01:08:05;;;;;;;88.07;44.85;;;7.00;86.60;;;;;;5027864;28;20032;-75
2022/12/02 01:10:31;;;;;;;85.97;44.63;;;7.10;86.20;;;;;;5043725;28;20590;-74
2022/12/02 01:12:57;;;;;;;87.10;42.90;;;7.00;86.10;;;;;;5043187;28;20335;-74
2022/12/02 01:15:22;;;;;;;87.18;43.72;;;7.10;86.10;;;;;;5041387;28;20021;-75
2022/12/02 01:17:48;;;;;;;85.72;45.22;;;7.10;86.00;;;;;;5050593;28;20021;-74
2022/12/02 01:20:14;;;;;;;85.68;45.05;;;7.10;86.20;;;;;;5044643;28;20025;-75
2022/12/02 01:22:40;;;;;;;86.32;44.00;;;7.10;85.80;;;;;;5054196;28;20036;-74
2022/12/02 01:25:06;;;;;;;82.97;41.15;;;7.10;85.60;;;;;;5043997;28;20025;-77
2022/12/02 01:27:31;;;;;;;83.63;45.70;;;7.00;85.70;;;;;;5024551;28;20045;-74
2022/12/02 01:29:57;;;;;;;82.85;43.45;;;6.90;85.50;;;;;;5041812;28;20021;-75
2022/12/02 01:32:23;;;;;;;85.13;44.78;;;6.90;85.90;;;;;;5039242;28;20021;-75
2022/12/02 01:34:49;;;;;;;86.10;46.03;;;6.90;86.00;;;;;;5045137;28;20162;-76
2022/12/02 01:37:14;;;;;;;87.35;47.13;;;6.90;85.90;;;;;;5043437;28;20031;-73
2022/12/02 01:39:40;;;;;;;84.78;44.03;;;6.90;85.90;;;;;;5043083;28;20483;-75
2022/12/02 01:42:09;;;;;;;85.78;44.63;;;7.00;85.90;;;;;;5043066;28;20036;-74
2022/12/02 01:44:35;;;;;;;80.28;39.13;;;6.90;85.80;;;;;;5042817;28;20033;-75
2022/12/02 01:47:02;;;;;;;87.75;44.53;;;7.00;90.40;;;;;;5038120;28;20047;-74
2022/12/02 01:49:27;;;;;;;77.68;38.67;;;7.00;88.40;;;;;;5044959;28;20387;-74
2022/12/02 01:51:54;;;;;;;84.03;42.53;;;6.90;86.80;;;;;;5039993;28;20028;-75
2022/12/02 01:54:20;;;;;;;83.35;43.88;;;6.90;86.20;;;;;;5044731;28;20053;-75
2022/12/02 01:56:46;;;;;;;82.53;44.45;;;7.00;86.80;;;;;;5042507;28;20428;-74
2022/12/02 01:59:13;;;;;;;82.70;42.75;;;6.90;86.30;;;;;;5045740;28;20104;-75
2022/12/02 02:01:39;;;;;;;85.05;43.75;;;6.90;86.10;;;;;;5023558;28;20060;-73
2022/12/02 02:04:06;;;;;;;80.45;43.50;;;6.90;86.00;;;;;;5040433;28;20052;-74
2022/12/02 02:06:45;;;;;;;78.68;41.53;;;7.00;86.30;;;;;;5041412;28;20111;-76
2022/12/02 02:09:11;;;;;;;80.70;41.92;;;7.00;85.90;;;;;;5025425;28;20043;-74
2022/12/02 02:11:39;;;;;;;77.70;41.80;;;7.00;86.30;;;;;;5042815;28;20049;-75
2022/12/02 02:14:08;;;;;;;73.55;39.63;;;7.00;86.40;;;;;;5043919;28;20816;-74
2022/12/02 02:16:35;;;;;;;80.07;41.90;;;7.00;88.40;;;;;;5045322;28;20036;-75
2022/12/02 02:19:02;;;;;;;78.15;40.45;;;7.00;86.30;;;;;;5038443;28;20021;-75
2022/12/02 02:21:35;;;;;;;81.30;41.22;;;6.90;86.10;;;;;;5045539;28;20585;-76
2022/12/02 02:24:01;;;;;;;83.68;42.65;;;6.90;85.70;;;;;;5021102;28;20151;-76
2022/12/02 02:26:26;;;;;;;58.20;27.83;;;6.90;87.80;;;;;;5043764;28;20025;-74
2022/12/02 02:28:52;;;;;;;68.28;35.15;;;7.00;92.20;;;;;;5036860;28;20036;-76
2022/12/02 02:31:18;;;;;;;54.15;28.25;;;6.80;90.70;;;;;;5044054;28;20078;-76
2022/12/02 02:33:45;;;;;;;61.08;27.25;;;6.80;91.60;;;;;;5046742;28;20036;-75
2022/12/02 02:36:10;;;;;;;52.75;26.15;;;6.80;91.90;;;;;;5042744;28;20020;-75
2022/12/02 02:38:37;;;;;;;77.43;39.55;;;6.70;91.10;;;;;;5040601;28;20544;-75
2022/12/02 02:41:03;;;;;;;75.35;37.40;;;6.70;89.90;;;;;;5044679;28;20364;-74
2022/12/02 02:43:30;;;;;;;70.57;35.22;;;6.70;90.40;;;;;;5045088;28;20033;-75
2022/12/02 02:45:58;;;;;;;71.95;35.33;;;6.70;88.60;;;;;;5028168;28;20040;-76
2022/12/02 02:48:25;;;;;;;81.00;39.92;;;6.70;88.80;;;;;;5046206;28;21297;-76
2022/12/02 02:50:51;;;;;;;48.53;22.83;;;6.70;88.00;;;;;;5042757;28;20032;-74
2022/12/02 02:53:19;;;;;;;74.53;33.85;;;6.70;90.90;;;;;;5046892;28;20161;-73
2022/12/02 02:55:47;;;;;;;78.40;39.25;;;6.80;92.20;;;;;;5047552;28;20056;-76
2022/12/02 02:58:12;;;;;;;69.40;33.17;;;6.80;90.10;;;;;;5046561;28;20033;-73
2022/12/02 03:00:41;;;;;;;63.28;31.30;;;6.80;88.50;;;;;;5043578;28;20383;-76
2022/12/02 03:03:10;;;;;;;66.07;33.97;;;6.80;89.80;;;;;;5047301;28;20033;-74
2022/12/02 03:05:36;;;;;;;74.65;35.13;;;6.80;90.30;;;;;;5029093;28;20036;-75
2022/12/02 03:08:06;;;;;;;70.95;34.85;;;6.70;88.60;;;;;;5047391;28;20044;-75
2022/12/02 03:10:32;;;;;;;70.18;32.22;;;6.70;87.40;;;;;;5045962;28;20036;-75
2022/12/02 03:12:58;;;;;;;72.05;34.95;;;6.60;87.10;;;;;;5007566;28;20033;-76
2022/12/02 03:15:26;;;;;;;79.90;38.20;;;6.60;87.10;;;;;;5003623;28;20026;-75
2022/12/02 03:17:52;;;;;;;67.95;34.65;;;6.60;87.80;;;;;;5005459;28;20026;-74
2022/12/02 03:20:19;;;;;;;71.00;32.50;;;6.60;87.10;;;;;;5000157;28;20026;-75
2022/12/02 03:22:45;;;;;;;71.88;35.45;;;6.60;86.70;;;;;;5006475;28;20450;-75
2022/12/02 03:25:11;;;;;;;73.63;35.20;;;6.60;86.60;;;;;;5004208;28;20027;-74
2022/12/02 03:27:37;;;;;;;73.40;36.03;;;6.60;86.60;;;;;;5003465;28;20034;-76
2022/12/02 03:30:04;;;;;;;73.53;34.92;;;6.60;86.40;;;;;;5003344;28;20089;-77
2022/12/02 03:32:29;;;;;;;69.57;33.10;;;6.70;86.00;;;;;;5005678;28;20447;-75
2022/12/02 03:34:55;;;;;;;71.00;35.72;;;6.70;87.30;;;;;;5005680;28;20022;-75
2022/12/02 03:37:22;;;;;;;68.57;33.47;;;6.70;86.20;;;;;;5006171;28;20498;-74
2022/12/02 03:39:48;;;;;;;57.47;27.40;;;6.70;85.90;;;;;;5004959;28;20089;-76
2022/12/02 03:42:14;;;;;;;57.03;26.67;;;6.70;89.40;;;;;;5004410;28;20036;-76
2022/12/02 03:44:40;;;;;;;70.93;31.65;;;6.70;90.40;;;;;;5006558;28;20034;-74
2022/12/02 03:47:06;;;;;;;66.35;29.48;;;6.80;89.90;;;;;;5005488;28;20092;-76
2022/12/02 03:49:33;;;;;;;65.40;30.98;;;6.70;87.80;;;;;;5005644;28;20018;-75
2022/12/02 03:51:59;;;;;;;68.97;31.50;;;6.70;89.00;;;;;;5003168;28;20056;-75
2022/12/02 03:54:25;;;;;;;69.30;33.95;;;6.70;88.50;;;;;;5007186;28;20025;-76
2022/12/02 03:56:51;;;;;;;67.93;32.20;;;6.70;87.40;;;;;;5001816;28;20038;-75
2022/12/02 03:59:24;;;;;;;70.72;34.22;;;6.70;86.50;;;;;;5006152;28;20115;-75
2022/12/02 04:01:50;;;;;;;73.80;34.10;;;6.70;88.80;;;;;;5005260;28;20021;-75
2022/12/02 04:04:16;;;;;;;62.70;33.17;;;6.60;87.60;;;;;;5007614;28;20025;-75
2022/12/02 04:06:42;;;;;;;58.63;28.65;;;6.60;89.00;;;;;;5003695;28;20476;-75
2022/12/02 04:09:07;;;;;;;68.50;31.70;;;6.60;87.90;;;;;;5004154;28;20029;-75
2022/12/02 04:11:33;;;;;;;63.05;31.83;;;6.60;88.80;;;;;;5017293;28;20044;-75
2022/12/02 04:13:58;;;;;;;45.05;22.83;;;6.60;87.80;;;;;;5044910;28;20558;-75
2022/12/02 04:16:24;;;;;;;60.58;28.48;;;6.60;90.30;;;;;;5021815;28;20491;-74
2022/12/02 04:18:50;;;;;;;58.63;27.55;;;6.60;90.50;;;;;;5025559;28;20098;-75
2022/12/02 04:21:15;;;;;;;51.78;23.13;;;6.50;88.20;;;;;;5023593;28;20018;-76
2022/12/02 04:23:41;;;;;;;48.83;24.05;;;6.50;88.70;;;;;;5025942;28;20030;-76
2022/12/02 04:26:07;;;;;;;57.30;25.45;;;6.60;91.80;;;;;;5024783;28;20021;-75
2022/12/02 04:28:32;;;;;;;51.88;23.80;;;6.50;90.10;;;;;;5022099;28;20043;-76
2022/12/02 04:30:59;;;;;;;51.25;23.95;;;6.40;88.00;;;;;;5026814;28;20210;-76
2022/12/02 04:33:25;;;;;;;53.08;25.08;;;6.40;86.90;;;;;;5021361;28;20037;-75
2022/12/02 04:35:50;;;;;;;53.60;25.20;;;6.40;86.20;;;;;;5040990;28;20018;-74
2022/12/02 04:38:16;;;;;;;53.85;25.55;;;6.40;85.90;;;;;;5025217;28;20021;-75
2022/12/02 04:40:42;;;;;;;44.35;21.40;;;6.50;85.80;;;;;;5026153;28;20044;-76
2022/12/02 04:43:07;;;;;;;50.15;24.25;;;6.50;87.20;;;;;;5023451;28;20017;-75
2022/12/02 04:45:33;;;;;;;36.85;18.83;;;6.50;86.00;;;;;;5026936;28;20857;-75
2022/12/02 04:47:59;;;;;;;32.83;15.65;;;6.50;86.30;;;;;;5023345;28;20037;-75
2022/12/02 04:50:24;;;;;;;44.00;21.55;;;6.60;90.20;;;;;;5026194;28;20029;-75
2022/12/02 04:52:50;;;;;;;46.92;22.98;;;6.50;90.30;;;;;;5024510;28;20095;-77
2022/12/02 04:55:15;;;;;;;37.03;18.67;;;6.50;89.70;;;;;;5025556;28;20048;-75
2022/12/02 04:57:41;;;;;;;47.38;21.25;;;6.60;92.40;;;;;;5023190;28;20106;-74
2022/12/02 05:00:07;;;;;;;44.65;22.00;;;6.60;91.30;;;;;;5022538;28;20025;-74
2022/12/02 05:02:33;;;;;;;42.38;21.75;;;6.50;91.10;;;;;;5024282;28;20033;-75
2022/12/02 05:04:59;;;;;;;36.97;18.25;;;6.40;88.60;;;;;;5023798;28;20052;-76
2022/12/02 05:07:24;;;;;;;40.63;20.23;;;6.30;87.20;;;;;;5025348;28;21734;-76
2022/12/02 05:09:50;;;;;;;37.67;17.75;;;6.30;86.50;;;;;;5022251;28;20060;-74
2022/12/02 05:12:16;;;;;;;48.25;23.00;;;6.30;89.50;;;;;;5040053;28;20055;-76
2022/12/02 05:14:42;;;;;;;43.35;21.75;;;6.30;88.00;;;;;;5044428;28;20471;-74
2022/12/02 05:17:07;;;;;;;45.05;22.60;;;6.40;87.00;;;;;;5028449;28;20035;-76
2022/12/02 05:19:33;;;;;;;43.92;21.92;;;6.40;85.50;;;;;;5042829;28;20021;-75
2022/12/02 05:21:59;;;;;;;41.53;21.63;;;6.40;86.00;;;;;;5042554;28;20032;-74
2022/12/02 05:24:24;;;;;;;41.30;21.85;;;6.40;85.20;;;;;;5043986;28;20029;-75
2022/12/02 05:26:50;;;;;;;43.53;20.95;;;6.30;84.70;;;;;;5044000;28;20040;-75
2022/12/02 05:29:17;;;;;;;35.50;17.38;;;6.30;87.60;;;;;;5043874;28;20039;-77
2022/12/02 05:31:43;;;;;;;36.67;18.52;;;6.30;90.00;;;;;;5027341;28;20036;-75
2022/12/02 05:34:09;;;;;;;42.67;22.88;;;6.20;88.40;;;;;;5022758;28;20025;-75
2022/12/02 05:36:34;;;;;;;41.47;22.85;;;6.20;90.70;;;;;;5045945;28;20033;-75
2022/12/02 05:39:00;;;;;;;33.92;16.30;;;6.10;89.80;;;;;;5025624;28;20032;-75
2022/12/02 05:41:26;;;;;;;44.45;22.27;;;6.10;90.40;;;;;;5044254;28;20067;-77
2022/12/02 05:43:51;;;;;;;46.58;25.40;;;6.10;90.40;;;;;;5055281;28;20029;-76
2022/12/02 05:46:20;;;;;;;35.83;16.67;;;6.10;88.40;;;;;;5045649;28;20103;-76
2022/12/02 05:48:47;;;;;;;40.35;21.58;;;6.10;89.80;;;;;;5041511;28;20120;-76
2022/12/02 05:51:20;;;;;;;47.65;24.02;;;6.10;88.10;;;;;;5043310;28;20029;-74
2022/12/02 05:53:47;;;;;;;48.05;24.60;;;6.20;88.40;;;;;;5044943;28;21782;-76
2022/12/02 05:56:25;;;;;;;32.90;15.65;;;6.30;89.20;;;;;;5039668;28;20036;-75
2022/12/02 05:58:52;;;;;;;44.72;23.40;;;6.30;91.30;;;;;;5049137;28;20041;-75
2022/12/02 06:01:30;;;;;;;46.70;24.65;;;6.40;92.20;;;;;;5040546;28;20021;-75
2022/12/02 06:03:56;;;;;;;37.50;19.85;;;6.30;89.30;;;;;;5043155;28;20495;-75
2022/12/02 06:06:26;;;;;;;36.88;17.45;;;6.30;87.70;;;;;;5043467;28;20017;-75
2022/12/02 06:08:54;;;;;;;37.28;19.35;;;6.30;90.90;;;;;;5044246;28;20039;-75
2022/12/02 06:11:24;;;;;;;47.85;25.33;;;6.30;91.10;;;;;;5039567;28;20052;-74
2022/12/02 06:13:50;;;;;;;49.30;25.38;;;6.20;90.40;;;;;;5042475;28;20021;-75
2022/12/02 06:16:23;;;;;;;50.58;25.20;;;6.20;90.20;;;;;;5040910;28;20032;-74
2022/12/02 06:18:52;;;;;;;42.88;21.65;;;6.20;91.50;;;;;;5042767;28;20902;-75
2022/12/02 06:21:20;;;;;;;45.63;24.95;;;6.40;94.10;;;;;;5046786;28;20029;-75
2022/12/02 06:23:49;;;;;;;48.13;22.13;;;6.30;93.30;;;;;;5047046;28;20039;-75
2022/12/02 06:26:17;;;;;;;41.00;21.25;;;6.30;92.20;;;;;;5046035;28;20033;-74
2022/12/02 06:28:46;;;;;;;33.60;17.17;;;6.20;91.90;;;;;;5045158;28;20021;-76
2022/12/02 06:31:36;;;;;;;33.88;15.77;;;6.20;91.50;;;;;;5048178;28;20112;-76
2022/12/02 06:34:30;;;;;;;34.22;16.85;;;6.20;93.00;;;;;;5048328;28;20102;-76
2022/12/02 06:36:58;;;;;;;46.35;23.55;;;6.10;93.30;;;;;;5044994;28;20036;-74
2022/12/02 06:39:24;;;;;;;42.45;22.85;;;6.10;92.10;;;;;;5030862;28;20020;-75
2022/12/02 06:41:51;;;;;;;31.25;15.32;;;6.00;91.00;;;;;;5040402;28;20025;-76
2022/12/02 06:47:38;;;;;;;29.63;15.43;;;6.00;92.00;;;;;;5044551;28;20162;-75
2022/12/02 06:50:04;;;;;;;49.10;25.25;;;6.10;94.50;;;;;;5009698;28;20095;-76
2022/12/02 06:52:34;;;;;;;51.40;26.05;;;6.20;94.50;;;;;;5043797;28;20536;-74
2022/12/02 06:54:59;;;;;;;;;;;6.10;93.50;;;;;;5046193;28;20057;-74
2022/12/02 06:57:26;;;;;;;44.40;23.60;;;6.20;94.30;;;;;;5045542;28;19959;-74
2022/12/02 06:59:51;;;;;;;40.97;21.80;;;6.00;92.70;;;;;;5031902;28;20403;-75
2022/12/02 07:02:30;;;;;;;39.92;22.05;;;6.00;93.10;;;;;;5042551;28;20035;-75
2022/12/02 07:04:57;;;;;;;42.45;23.73;;;6.00;92.90;;;;;;5046784;28;20037;-76
2022/12/02 07:07:28;;;;;;;32.40;16.42;;;6.00;93.30;;;;;;5043807;28;20025;-74
2022/12/02 07:10:18;;;;;;;42.95;22.52;;;6.00;93.80;;;;;;5044617;28;20044;-75
2022/12/02 07:12:45;;;;;;;34.80;18.38;;;5.80;92.90;;;;;;5043903;28;20068;-74
2022/12/02 07:15:26;;;;;;;40.17;20.83;;;5.80;93.80;;;;;;5041257;28;20122;-75
2022/12/02 07:17:55;;;;;;;50.08;23.73;;;5.80;93.10;;;;;;5041122;28;20024;-75
2022/12/02 07:20:30;;;;;;;53.05;27.27;;;5.80;91.90;;;;;;5043270;28;20109;-75
2022/12/02 07:22:59;;;;;;;47.72;23.65;;;5.80;92.90;;;;;;5042179;28;20026;-75
2022/12/02 07:25:37;;;;;;;47.27;26.30;;;5.90;93.50;;;;;;5043334;28;20029;-77
2022/12/02 07:28:23;;;;;;;44.83;25.98;;;5.90;93.80;;;;;;5042122;28;20037;-76
2022/12/02 07:31:22;;;;;;;52.00;22.92;;;5.90;92.50;;;;;;5045153;28;20037;-75
2022/12/02 07:33:49;;;;;;;48.25;22.35;;;5.90;93.10;;;;;;5042126;28;20552;-75
2022/12/02 07:36:15;;;;;;;45.03;23.08;;;5.90;93.40;;;;;;5045173;28;20035;-75
2022/12/02 07:38:41;;;;;;;50.97;24.75;;;5.90;94.80;;;;;;5043487;28;20017;-76
2022/12/02 07:41:07;;;;;;;51.10;26.95;;;5.90;93.70;;;;;;5041383;28;20029;-74
2022/12/02 07:43:32;;;;;;;31.80;16.27;;;5.80;92.80;;;;;;5025353;28;20491;-74
2022/12/02 07:45:59;;;;;;;53.70;26.50;;;5.80;94.70;;;;;;5041619;28;20040;-75
2022/12/02 07:48:24;;;;;;;46.17;23.02;;;5.70;93.50;;;;;;5043858;28;20045;-73
2022/12/02 07:50:53;;;;;;;48.80;26.30;;;5.80;93.70;;;;;;5043445;28;20063;-76
2022/12/02 07:53:19;;;;;;;49.33;23.95;;;5.70;93.60;;;;;;5040681;28;20032;-74
2022/12/02 07:55:45;;;;;;;41.95;20.92;;;5.60;92.40;;;;;;5047977;28;20082;-75
2022/12/02 07:58:10;;;;;;;45.70;22.15;;;5.70;92.30;;;;;;5040399;28;20140;-74
2022/12/02 08:00:36;;;;;;;52.92;25.08;;;5.80;93.50;;;;;;5039145;28;20035;-74
2022/12/02 08:03:02;;;;;;;59.58;26.63;;;5.70;93.00;;;;;;5049515;28;20025;-76
2022/12/02 08:05:29;;;;;;;49.17;24.10;;;5.60;92.30;;;;;;5045844;28;20505;-76
2022/12/02 08:07:54;;;;;;;55.05;25.95;;;5.60;93.70;;;;;;5032725;28;20058;-75
2022/12/02 08:10:20;;;;;;;53.78;26.00;;;5.70;94.50;;;;;;5043780;28;20040;-74
2022/12/02 08:12:46;;;;;;;33.55;15.13;;;5.60;93.20;;;;;;5050328;28;20055;-75
2022/12/02 08:15:12;;;;;;;52.25;26.25;;;5.70;94.80;;;;;;5045423;28;20189;-75
2022/12/02 08:17:38;;;;;;;51.58;23.27;;;5.70;94.80;;;;;;5045952;28;20406;-75
2022/12/02 08:20:06;;;;;;;60.47;28.40;;;5.80;95.40;;;;;;5048524;28;20024;-74
2022/12/02 08:22:31;;;;;;;57.80;27.48;;;5.80;95.70;;;;;;5048823;28;20100;-74
2022/12/02 08:24:57;;;;;;;66.65;29.42;;;5.70;94.10;;;;;;5047614;28;20108;-75
2022/12/02 08:27:23;;;;;;;58.05;26.15;;;5.80;94.90;;;;;;5050407;28;20121;-75
2022/12/02 08:29:49;;;;;;;45.33;20.10;;;5.80;94.40;;;;;;5045089;28;20387;-75
2022/12/02 08:32:16;;;;;;;52.42;24.52;;;5.80;94.70;;;;;;5043312;28;20094;-75
2022/12/02 08:34:41;;;;;;;60.05;29.30;;;5.70;94.90;;;;;;5047120;28;20075;-76
2022/12/02 08:37:08;;;;;;;58.33;25.60;;;5.70;94.00;;;;;;5043381;28;20024;-76
2022/12/02 08:39:33;;;;;;;56.58;24.85;;;5.70;93.80;;;;;;5031171;28;20078;-74
2022/12/02 08:41:59;;;;;;;55.92;26.33;;;5.80;94.10;;;;;;5036050;28;20030;-75
2022/12/02 08:44:25;;;;;;;57.30;25.60;;;5.80;93.80;;;;;;5048711;28;20017;-75
2022/12/02 08:46:51;;;;;;;58.15;25.85;;;5.80;93.90;;;;;;5045932;28;20044;-75
2022/12/02 08:49:17;;;;;;;58.45;26.45;;;5.80;94.30;;;;;;5049730;28;20032;-75
2022/12/02 08:51:43;;;;;;;58.90;28.08;;;5.80;93.40;;;;;;5035438;28;20026;-75
2022/12/02 08:54:10;;;;;;;64.68;29.15;;;5.70;93.70;;;;;;5035322;28;20029;-75
2022/12/02 08:56:35;;;;;;;58.53;22.38;;;5.90;95.00;;;;;;5040975;28;20079;-75
2022/12/02 08:59:02;;;;;;;48.05;23.55;;;5.90;95.70;;;;;;5046629;28;20028;-75
2022/12/02 09:01:28;;;;;;;52.47;22.13;;;5.80;95.50;;;;;;5044199;28;20090;-75
2022/12/02 09:03:53;;;;;;;65.85;29.52;;;5.80;95.30;;;;;;5038089;28;20013;-74
2022/12/02 09:06:19;;;;;;;59.17;27.13;;;5.80;94.50;;;;;;5035347;28;20075;-77
2022/12/02 09:08:45;;;;;;;62.53;30.85;;;5.80;94.00;;;;;;5024273;28;20028;-75
2022/12/02 09:11:10;;;;;;;63.63;28.08;;;5.80;92.90;;;;;;5048953;28;20107;-74
2022/12/02 09:13:36;;;;;;;59.13;28.95;;;5.90;92.20;;;;;;5048115;28;20031;-75
2022/12/02 09:16:01;;;;;;;67.75;29.90;;;5.80;93.60;;;;;;5046717;28;20467;-75
2022/12/02 09:18:27;;;;;;;71.05;30.95;;;5.80;93.10;;;;;;5027478;28;20032;-76
2022/12/02 09:20:53;;;;;;;57.88;23.85;;;5.80;93.70;;;;;;5048485;28;20364;-75
2022/12/02 09:23:18;;;;;;;62.08;28.65;;;5.90;93.90;;;;;;5048923;28;20136;-75
2022/12/02 09:25:44;;;;;;;63.22;28.13;;;5.90;92.60;;;;;;5037531;28;20021;-74
2022/12/02 09:28:09;;;;;;;54.22;23.02;;;5.80;92.00;;;;;;5045532;28;20041;-75
2022/12/02 09:30:36;;;;;;;52.22;22.92;;;5.80;93.20;;;;;;5041885;28;20857;-75
2022/12/02 09:33:02;;;;;;;58.25;24.13;;;5.90;94.30;;;;;;5037498;28;20021;-76
2022/12/02 09:35:27;;;;;;;55.38;24.80;;;6.00;94.60;;;;;;5047891;28;20108;-75
2022/12/02 09:37:53;;;;;;;59.47;24.95;;;6.00;93.50;;;;;;5045836;28;20472;-76
2022/12/02 09:40:19;;;;;;;46.22;21.42;;;6.00;92.40;;;;;;5049094;28;20028;-75
2022/12/02 09:42:45;;;;;;;47.38;22.27;;;6.00;91.50;;;;;;5046802;28;20017;-75
2022/12/02 09:45:12;;;;;;;63.30;27.48;;;6.00;93.50;;;;;;5047926;28;20150;-75
2022/12/02 09:47:39;;;;;;;48.50;22.70;;;6.10;93.30;;;;;;5047233;28;20037;-77
2022/12/02 09:50:05;;;;;;;57.10;25.42;;;6.10;92.70;;;;;;5036255;28;20029;-75
2022/12/02 09:52:31;;;;;;;50.83;25.05;;;6.10;92.20;;;;;;5044835;28;20051;-76
2022/12/02 09:55:00;;;;;;;60.30;29.38;;;6.20;92.90;;;;;;5042687;28;20209;-77
2022/12/02 09:57:31;;;;;;;59.67;28.00;;;6.10;91.70;;;;;;5032840;28;20021;-75
2022/12/02 09:59:58;;;;;;;51.15;23.92;;;6.10;91.00;;;;;;5046965;28;20029;-75
2022/12/02 10:02:28;;;;;;;49.38;21.67;;;6.20;91.00;;;;;;5047224;28;20015;-75
2022/12/02 10:04:56;;;;;;;68.60;31.67;;;6.20;91.80;;;;;;5045477;28;20025;-76
2022/12/02 10:07:21;;;;;;;60.75;28.48;;;6.20;90.80;;;;;;5048135;28;20086;-75
2022/12/02 10:09:48;;;;;;;61.42;29.50;;;6.20;89.90;;;;;;5040789;28;20029;-75
2022/12/02 10:12:14;;;;;;;55.20;25.80;;;6.20;89.90;;;;;;5048190;28;20694;-76
2022/12/02 10:14:45;;;;;;;51.35;24.70;;;6.20;90.80;;;;;;5046477;28;20024;-76
2022/12/02 10:17:16;;;;;;;54.90;26.35;;;6.20;91.30;;;;;;5048525;28;20049;-75
2022/12/02 10:19:45;;;;;;;48.30;20.83;;;6.20;92.10;;;;;;5048868;28;20086;-76
2022/12/02 10:22:19;;;;;;;45.13;20.52;;;6.20;91.60;;;;;;5030722;28;20025;-77
2022/12/02 10:24:45;;;;;;;54.03;25.65;;;6.10;91.50;;;;;;5048455;28;20759;-75
2022/12/02 10:27:30;;;;;;;57.45;25.92;;;6.10;90.10;;;;;;5051588;28;20074;-76
2022/12/02 10:30:22;;;;;;;58.08;27.27;;;6.10;88.20;;;;;;5034301;28;20068;-76
2022/12/02 10:33:14;;;;;;;54.15;25.23;;;6.10;87.60;;;;;;5046285;28;20083;-76
2022/12/02 10:35:48;;;;;;;50.50;22.98;;;6.20;90.40;;;;;;5038227;28;20034;-75
2022/12/02 10:38:35;;;;;;;53.65;24.80;;;6.30;91.90;;;;;;5047653;28;20471;-75
2022/12/02 10:41:23;;;;;;;63.33;28.15;;;6.20;90.80;;;;;;5042682;28;20017;-75
2022/12/02 10:43:52;;;;;;;55.90;25.58;;;6.20;90.30;;;;;;5047738;28;20052;-75
2022/12/02 10:46:21;;;;;;;57.45;24.80;;;6.20;91.60;;;;;;5036985;28;20490;-76
2022/12/02 10:48:47;;;;;;;61.70;27.15;;;6.20;91.40;;;;;;5029202;28;20086;-77
2022/12/02 10:51:17;;;;;;;53.42;21.52;;;6.20;91.40;;;;;;5040534;28;20064;-76
2022/12/02 10:53:46;;;;;;;54.35;26.42;;;6.10;91.40;;;;;;5034196;28;20061;-76
2022/12/02 10:56:19;;;;;;;51.47;19.73;;;6.10;90.30;;;;;;5046161;28;20107;-73
2022/12/02 10:58:46;;;;;;;48.40;23.17;;;6.00;91.50;;;;;;5047568;28;20021;-76
2022/12/02 11:01:12;;;;;;;51.33;22.55;;;6.00;91.20;;;;;;5033669;28;20490;-75
2022/12/02 11:03:39;;;;;;;51.50;22.40;;;5.90;90.60;;;;;;5047602;28;20517;-74
2022/12/02 11:06:19;;;;;;;56.95;23.08;;;6.00;92.40;;;;;;5048480;28;20067;-75
2022/12/02 11:08:47;;;;;;;45.88;20.92;;;5.90;91.40;;;;;;5031382;28;20033;-76
2022/12/02 11:11:16;;;;;;;58.08;26.63;;;5.80;92.30;;;;;;5045283;28;20049;-75
2022/12/02 11:13:55;;;;;;;58.03;26.65;;;5.80;91.00;;;;;;5044092;28;20314;-75
2022/12/02 11:16:32;;;;;;;39.92;18.00;;;5.90;91.90;;;;;;5036574;28;20034;-75
2022/12/02 11:19:16;;;;;;;52.38;23.88;;;5.90;92.80;;;;;;5050023;28;20021;-76
2022/12/02 11:21:45;;;;;;;50.42;20.90;;;6.00;92.80;;;;;;5038531;28;20025;-75
2022/12/02 11:24:22;;;;;;;50.63;22.55;;;6.20;94.10;;;;;;5035266;28;20018;-76
2022/12/02 11:27:03;;;;;;;42.95;19.40;;;6.20;94.20;;;;;;5046090;28;20028;-76
2022/12/02 11:30:05;;;;;;;46.70;21.30;;;6.10;93.00;;;;;;5041816;28;20024;-73
2022/12/02 11:32:37;;;;;;;43.00;17.38;;;6.20;93.00;;;;;;5045527;28;20021;-77
2022/12/02 11:35:14;;;;;;;49.60;21.10;;;6.10;92.80;;;;;;5032460;28;20376;-75
2022/12/02 11:37:42;;;;;;;43.33;18.98;;;6.00;92.40;;;;;;5046430;28;20352;-75
2022/12/02 11:40:12;;;;;;;48.75;19.08;;;6.00;92.20;;;;;;5050968;28;20041;-75
2022/12/02 11:42:38;;;;;;;52.83;23.03;;;6.00;92.60;;;;;;5046482;28;20466;-76
2022/12/02 11:45:16;;;;;;;49.10;22.52;;;6.00;91.20;;;;;;5046921;28;20040;-75
2022/12/02 11:47:55;;;;;;;40.88;18.27;;;6.00;91.20;;;;;;5045765;28;20106;-75
2022/12/02 11:50:23;;;;;;;49.50;23.03;;;6.10;92.70;;;;;;5049674;28;20534;-75
2022/12/02 11:53:09;;;;;;;45.13;18.35;;;6.20;93.30;;;;;;5048506;28;20014;-75
2022/12/02 11:55:40;;;;;;;42.35;18.23;;;6.10;92.90;;;;;;5050747;28;20036;-76
2022/12/02 11:58:24;;;;;;;47.47;19.30;;;6.20;94.40;;;;;;5045425;28;20047;-76
2022/12/02 12:01:15;;;;;;;39.92;18.08;;;6.20;94.40;;;;;;5050603;28;20029;-75
2022/12/02 12:03:46;;;;;;;53.65;21.38;;;6.10;92.60;;;;;;5046448;28;20130;-76
2022/12/02 12:06:20;;;;;;;41.92;16.15;;;6.20;92.30;;;;;;5050677;28;20092;-74
2022/12/02 12:08:51;;;;;;;51.97;23.73;;;6.30;92.60;;;;;;5045311;28;20499;-75
2022/12/02 12:11:43;;;;;;;43.15;18.58;;;6.30;90.80;;;;;;5049523;28;20095;-75
2022/12/02 12:14:11;;;;;;;52.58;22.58;;;6.30;90.80;;;;;;5021190;28;20044;-76
2022/12/02 12:16:42;;;;;;;45.92;22.10;;;6.30;88.40;;;;;;5047660;28;20115;-75
2022/12/02 12:19:11;;;;;;;42.63;18.63;;;6.40;89.20;;;;;;5043169;28;20014;-75
2022/12/02 12:21:49;;;;;;;48.28;18.55;;;6.30;87.60;;;;;;5048684;28;20112;-75
2022/12/02 12:24:17;;;;;;;49.83;20.85;;;6.30;90.20;;;;;;5039359;28;20028;-75
2022/12/02 12:26:48;;;;;;;48.40;20.58;;;6.30;88.40;;;;;;5050522;28;20068;-76
2022/12/02 12:29:14;;;;;;;40.42;18.88;;;6.40;86.20;;;;;;5033833;28;20028;-75
2022/12/02 12:31:39;;;;;;;51.45;19.77;;;6.40;90.20;;;;;;5043436;28;20063;-75
2022/12/02 12:34:06;;;;;;;41.90;17.25;;;6.50;90.80;;;;;;5045613;28;20067;-74
2022/12/02 12:36:32;;;;;;;40.80;18.95;;;6.60;91.20;;;;;;5049090;28;20509;-75
2022/12/02 12:38:57;;;;;;;41.22;17.90;;;6.60;90.10;;;;;;5040004;28;20021;-74
2022/12/02 12:41:23;;;;;;;45.03;20.40;;;6.60;91.30;;;;;;5038973;28;20612;-75
2022/12/02 12:43:49;;;;;;;41.13;17.80;;;6.60;91.00;;;;;;5040815;28;20013;-75
2022/12/02 12:46:15;;;;;;;39.75;18.73;;;6.60;89.60;;;;;;5039777;28;20029;-75
2022/12/02 12:48:41;;;;;;;38.85;17.83;;;6.70;91.40;;;;;;5040545;28;20041;-75
2022/12/02 12:51:07;;;;;;;36.05;16.90;;;6.70;91.20;;;;;;5040520;28;20083;-74